createdAt,value
2018-04-01T00:02:11.881Z,71.20
2018-04-01T00:04:39.655Z,71.00
2018-04-01T00:07:07.459Z,71.55
2018-04-01T00:09:35.259Z,71.74
2018-04-01T00:12:03.073Z,71.38
2018-04-01T00:14:30.898Z,71.55
2018-04-01T00:16:58.764Z,71.24
2018-04-01T00:19:26.528Z,71.30
2018-04-01T00:21:54.337Z,71.65
2018-04-01T00:24:22.156Z,71.27
2018-04-01T00:26:50.022Z,71.32
2018-04-01T00:29:17.882Z,71.80
2018-04-01T00:31:45.716Z,71.77
2018-04-01T00:34:13.495Z,71.80
2018-04-01T00:36:41.275Z,71.72
2018-04-01T00:39:09.084Z,71.27
2018-04-01T00:41:36.862Z,71.52
2018-04-01T00:44:04.698Z,71.64
2018-04-01T00:46:32.537Z,71.60
2018-04-01T00:49:00.405Z,71.79
2018-04-01T00:51:28.173Z,71.81
2018-04-01T00:53:56.003Z,71.50
2018-04-01T00:56:23.801Z,71.92
2018-04-01T00:58:51.693Z,71.67
2018-04-01T01:01:19.538Z,71.78
2018-04-01T01:03:47.348Z,71.62
2018-04-01T01:06:15.158Z,71.61
2018-04-01T01:08:42.984Z,71.21
2018-04-01T01:11:10.901Z,71.58
2018-04-01T01:13:38.666Z,71.66
2018-04-01T01:16:06.630Z,71.76
2018-04-01T01:18:34.383Z,71.78
2018-04-01T01:21:02.183Z,71.92
2018-04-01T01:23:29.992Z,71.71
2018-04-01T01:25:57.791Z,71.61
2018-04-01T01:28:25.563Z,71.37
2018-04-01T01:30:53.368Z,71.41
2018-04-01T01:33:21.173Z,71.66
2018-04-01T01:35:49.062Z,71.14
2018-04-01T01:38:16.837Z,70.96
2018-04-01T01:40:44.631Z,70.96
2018-04-01T01:43:12.451Z,70.73
2018-04-01T01:45:40.259Z,70.72
2018-04-01T01:48:08.044Z,70.90
2018-04-01T01:50:35.842Z,70.97
2018-04-01T01:53:03.704Z,71.18
2018-04-01T01:55:31.488Z,70.96
2018-04-01T01:57:59.308Z,70.84
2018-04-01T02:00:27.069Z,71.08
2018-04-01T02:02:54.873Z,71.14
2018-04-01T02:05:22.663Z,71.32
2018-04-01T02:07:51.529Z,71.00
2018-04-01T02:10:19.407Z,71.22
2018-04-01T02:12:47.219Z,71.52
2018-04-01T02:15:15.003Z,71.58
2018-04-01T02:17:42.807Z,71.36
2018-04-01T02:20:10.586Z,71.08
2018-04-01T02:22:38.416Z,71.31
2018-04-01T02:25:06.270Z,71.37
2018-04-01T02:27:34.068Z,71.16
2018-04-01T02:30:01.846Z,71.08
2018-04-01T02:32:29.641Z,71.21
2018-04-01T02:34:57.432Z,70.66
2018-04-01T02:37:25.238Z,70.27
2018-04-01T02:39:53.000Z,70.20
2018-04-01T02:42:20.763Z,69.98
2018-04-01T02:44:48.554Z,69.46
2018-04-01T02:47:16.328Z,69.60
2018-04-01T02:49:44.138Z,69.62
2018-04-01T02:52:11.908Z,69.27
2018-04-01T02:54:39.712Z,69.93
2018-04-01T02:57:07.511Z,69.54
2018-04-01T02:59:35.379Z,69.73
2018-04-01T03:02:03.156Z,70.50
2018-04-01T03:04:31.008Z,71.99
2018-04-01T03:06:58.779Z,72.90
2018-04-01T03:09:26.567Z,72.79
2018-04-01T03:11:54.410Z,73.37
2018-04-01T03:14:22.207Z,73.86
2018-04-01T03:16:49.978Z,74.20
2018-04-01T03:19:17.780Z,74.28
2018-04-01T03:21:45.552Z,74.40
2018-04-01T03:24:13.320Z,73.79
2018-04-01T03:26:41.120Z,74.62
2018-04-01T03:29:08.906Z,74.55
2018-04-01T03:31:36.704Z,74.55
2018-04-01T03:34:04.479Z,74.72
2018-04-01T03:36:32.294Z,74.61
2018-04-01T03:39:00.080Z,74.51
2018-04-01T03:41:27.890Z,74.61
2018-04-01T03:43:55.752Z,74.28
2018-04-01T03:46:23.578Z,74.37
2018-04-01T03:48:51.376Z,74.05
2018-04-01T03:51:19.177Z,74.18
2018-04-01T03:53:46.962Z,73.75
2018-04-01T03:56:14.756Z,73.80
2018-04-01T03:58:42.548Z,74.36
2018-04-01T04:01:10.343Z,74.12
2018-04-01T04:03:38.112Z,73.96
2018-04-01T04:06:05.904Z,74.07
2018-04-01T04:08:33.670Z,74.07
2018-04-01T04:11:01.455Z,74.28
2018-04-01T04:13:29.255Z,74.38
2018-04-01T04:15:57.027Z,74.25
2018-04-01T04:18:24.827Z,74.49
2018-04-01T04:20:52.611Z,74.49
2018-04-01T04:23:20.484Z,74.60
2018-04-01T04:25:48.249Z,74.82
2018-04-01T04:28:16.034Z,74.01
2018-04-01T04:30:43.868Z,74.35
2018-04-01T04:33:11.739Z,74.33
2018-04-01T04:35:39.602Z,74.51
2018-04-01T04:38:07.395Z,74.51
2018-04-01T04:40:35.239Z,74.69
2018-04-01T04:43:03.052Z,74.43
2018-04-01T04:45:30.822Z,74.15
2018-04-01T04:47:58.590Z,74.45
2018-04-01T04:50:26.514Z,74.47
2018-04-01T04:52:54.370Z,74.50
2018-04-01T04:55:22.575Z,74.43
2018-04-01T04:57:50.419Z,74.58
2018-04-01T05:00:18.271Z,74.71
2018-04-01T05:02:46.039Z,74.53
2018-04-01T05:05:13.916Z,74.09
2018-04-01T05:07:41.694Z,74.05
2018-04-01T05:10:09.530Z,73.98
2018-04-01T05:12:37.296Z,73.99
2018-04-01T05:15:05.113Z,73.93
2018-04-01T05:17:32.921Z,73.80
2018-04-01T05:20:00.712Z,74.03
2018-04-01T05:22:28.489Z,74.08
2018-04-01T05:24:56.264Z,74.11
2018-04-01T05:27:24.054Z,74.27
2018-04-01T05:29:51.814Z,73.93
2018-04-01T05:32:19.710Z,74.13
2018-04-01T05:34:47.478Z,74.12
2018-04-01T05:37:15.301Z,74.10
2018-04-01T05:39:43.115Z,74.10
2018-04-01T05:42:10.915Z,73.57
2018-04-01T05:44:38.753Z,73.46
2018-04-01T05:47:06.663Z,73.83
2018-04-01T05:49:34.482Z,73.82
2018-04-01T05:52:02.480Z,73.88
2018-04-01T05:54:30.242Z,73.26
2018-04-01T05:56:58.042Z,72.80
2018-04-01T05:59:25.808Z,72.94
2018-04-01T06:01:53.617Z,72.87
2018-04-01T06:04:21.395Z,72.40
2018-04-01T06:06:49.276Z,72.52
2018-04-01T06:09:17.038Z,72.81
2018-04-01T06:11:44.819Z,73.42
2018-04-01T06:14:12.623Z,73.09
2018-04-01T06:16:40.398Z,73.55
2018-04-01T06:19:08.217Z,73.52
2018-04-01T06:21:36.010Z,74.37
2018-04-01T06:24:03.874Z,73.80
2018-04-01T06:26:31.652Z,73.37
2018-04-01T06:28:59.513Z,73.49
2018-04-01T06:31:27.295Z,72.91
2018-04-01T06:33:55.149Z,73.31
2018-04-01T06:36:22.937Z,72.69
2018-04-01T06:38:50.764Z,73.32
2018-04-01T06:41:18.539Z,73.09
2018-04-01T06:43:46.308Z,74.42
2018-04-01T06:46:14.164Z,75.28
2018-04-01T06:48:42.036Z,75.00
2018-04-01T06:51:09.918Z,75.21
2018-04-01T06:53:37.695Z,74.73
2018-04-01T06:56:05.515Z,75.41
2018-04-01T06:58:33.273Z,76.47
2018-04-01T07:01:01.082Z,76.62
2018-04-01T07:03:28.863Z,77.02
2018-04-01T07:05:56.691Z,77.75
2018-04-01T07:08:24.475Z,77.21
2018-04-01T07:10:52.325Z,77.87
2018-04-01T07:13:20.191Z,76.94
2018-04-01T07:15:48.052Z,77.00
2018-04-01T07:18:15.827Z,77.20
2018-04-01T07:20:43.675Z,76.51
2018-04-01T07:23:11.474Z,76.42
2018-04-01T07:25:39.318Z,76.23
2018-04-01T07:28:07.184Z,76.69
2018-04-01T07:30:35.034Z,77.04
2018-04-01T07:33:02.903Z,75.47
2018-04-01T07:35:30.716Z,75.07
2018-04-01T07:37:58.551Z,74.64
2018-04-01T07:40:26.319Z,73.84
2018-04-01T07:42:54.115Z,73.34
2018-04-01T07:45:21.939Z,74.17
2018-04-01T07:47:49.742Z,73.32
2018-04-01T07:50:17.510Z,73.73
2018-04-01T07:52:45.675Z,72.68
2018-04-01T07:55:13.440Z,72.42
2018-04-01T07:57:41.274Z,72.32
2018-04-01T08:00:09.140Z,72.46
2018-04-01T08:02:36.940Z,71.50
2018-04-01T08:05:04.767Z,71.29
2018-04-01T08:07:32.591Z,71.31
2018-04-01T08:10:00.387Z,72.23
2018-04-01T08:12:28.255Z,71.49
2018-04-01T08:14:56.046Z,71.10
2018-04-01T08:17:23.830Z,71.40
2018-04-01T08:19:51.649Z,71.63
2018-04-01T08:22:19.420Z,71.28
2018-04-01T08:24:47.223Z,71.21
2018-04-01T08:27:15.007Z,71.57
2018-04-01T08:29:42.802Z,72.13
2018-04-01T08:32:10.600Z,72.54
2018-04-01T08:34:38.387Z,73.65
2018-04-01T08:37:06.204Z,73.68
2018-04-01T08:39:33.998Z,73.41
2018-04-01T08:42:01.775Z,73.93
2018-04-01T08:44:29.603Z,73.04
2018-04-01T08:46:57.372Z,73.20
2018-04-01T08:49:26.167Z,72.98
2018-04-01T08:51:53.943Z,71.91
2018-04-01T08:54:21.775Z,71.30
2018-04-01T08:56:49.666Z,71.87
2018-04-01T08:59:17.464Z,71.89
2018-04-01T09:01:45.274Z,72.38
2018-04-01T09:04:13.100Z,72.68
2018-04-01T09:06:41.266Z,72.77
2018-04-01T09:09:09.040Z,71.99
2018-04-01T09:11:36.821Z,71.50
2018-04-01T09:14:04.598Z,71.10
2018-04-01T09:16:32.399Z,68.97
2018-04-01T09:19:00.258Z,68.31
2018-04-01T09:21:28.063Z,67.90
2018-04-01T09:23:55.862Z,67.57
2018-04-01T09:26:23.650Z,67.36
2018-04-01T09:28:51.501Z,65.31
2018-04-01T09:31:19.294Z,65.16
2018-04-01T09:33:47.057Z,64.67
2018-04-01T09:36:14.857Z,64.83
2018-04-01T09:38:42.695Z,63.65
2018-04-01T09:41:10.471Z,63.70
2018-04-01T09:43:38.291Z,63.96
2018-04-01T09:46:06.106Z,63.83
2018-04-01T09:48:33.886Z,63.36
2018-04-01T09:51:01.679Z,63.57
2018-04-01T09:53:29.487Z,62.83
2018-04-01T09:55:57.254Z,62.87
2018-04-01T09:58:25.180Z,62.91
2018-04-01T10:00:59.044Z,62.25
2018-04-01T10:03:27.465Z,62.19
2018-04-01T10:05:55.761Z,61.72
2018-04-01T10:08:24.097Z,61.52
2018-04-01T10:10:52.435Z,60.35
2018-04-01T10:13:20.764Z,59.92
2018-04-01T10:15:49.066Z,59.23
2018-04-01T10:18:17.421Z,58.36
2018-04-01T10:20:45.819Z,59.66
2018-04-01T10:23:14.163Z,58.16
2018-04-01T10:25:42.505Z,57.92
2018-04-01T10:28:10.844Z,57.81
2018-04-01T10:30:39.829Z,57.33
2018-04-01T10:33:07.523Z,57.52
2018-04-01T10:35:35.860Z,58.86
2018-04-01T10:38:04.210Z,59.14
2018-04-01T10:40:32.558Z,58.88
2018-04-01T10:43:00.898Z,58.48
2018-04-01T10:45:29.242Z,59.00
2018-04-01T10:47:57.544Z,58.97
2018-04-01T10:50:25.945Z,58.94
2018-04-01T10:52:54.246Z,58.55
2018-04-01T10:55:22.079Z,57.18
2018-04-01T10:57:49.856Z,56.36
2018-04-01T11:00:17.703Z,56.55
2018-04-01T11:02:45.487Z,54.99
2018-04-01T11:05:13.312Z,54.45
2018-04-01T11:07:41.087Z,53.49
2018-04-01T11:10:08.854Z,52.49
2018-04-01T11:12:36.644Z,51.58
2018-04-01T11:15:04.498Z,51.08
2018-04-01T11:17:32.375Z,49.76
2018-04-01T11:20:00.242Z,49.73
2018-04-01T11:22:28.028Z,50.56
2018-04-01T11:24:55.799Z,50.26
2018-04-01T11:27:23.592Z,50.77
2018-04-01T11:29:51.364Z,49.79
2018-04-01T11:32:19.154Z,51.49
2018-04-01T11:34:46.982Z,52.98
2018-04-01T11:37:14.770Z,53.33
2018-04-01T11:39:42.552Z,53.65
2018-04-01T11:42:10.361Z,52.95
2018-04-01T11:44:38.181Z,52.35
2018-04-01T11:47:06.061Z,52.78
2018-04-01T11:49:33.855Z,52.20
2018-04-01T11:52:01.623Z,52.58
2018-04-01T11:54:29.443Z,53.01
2018-04-01T11:56:57.242Z,52.47
2018-04-01T11:59:25.076Z,53.12
2018-04-01T12:01:52.857Z,51.98
2018-04-01T12:04:20.701Z,51.20
2018-04-01T12:06:48.477Z,51.09
2018-04-01T12:09:16.333Z,50.99
2018-04-01T12:11:44.195Z,51.80
2018-04-01T12:14:12.079Z,52.21
2018-04-01T12:16:39.856Z,52.17
2018-04-01T12:19:07.704Z,53.14
2018-04-01T12:21:35.460Z,52.25
2018-04-01T12:24:03.226Z,51.88
2018-04-01T12:26:31.010Z,52.44
2018-04-01T12:28:58.788Z,52.22
2018-04-01T12:31:26.587Z,50.98
2018-04-01T12:33:54.379Z,49.01
2018-04-01T12:36:22.178Z,44.01
2018-04-01T12:38:50.057Z,44.80
2018-04-01T12:41:17.828Z,41.25
2018-04-01T12:43:46.668Z,42.35
2018-04-01T12:46:14.540Z,43.36
2018-04-01T12:48:42.322Z,43.24
2018-04-01T12:51:10.148Z,45.74
2018-04-01T12:53:37.914Z,47.69
2018-04-01T12:56:05.715Z,45.77
2018-04-01T12:58:33.554Z,45.33
2018-04-01T13:01:01.425Z,52.53
2018-04-01T13:03:29.198Z,54.37
2018-04-01T13:05:56.963Z,49.41
2018-04-01T13:08:24.770Z,51.19
2018-04-01T13:10:52.554Z,55.42
2018-04-01T13:13:20.464Z,57.64
2018-04-01T13:15:48.226Z,61.38
2018-04-01T13:18:16.071Z,65.50
2018-04-01T13:20:43.844Z,66.77
2018-04-01T13:23:11.707Z,65.48
2018-04-01T13:25:39.481Z,70.44
2018-04-01T13:28:07.267Z,73.76
2018-04-01T13:30:35.218Z,73.84
2018-04-01T13:33:03.076Z,74.67
2018-04-01T13:35:30.942Z,73.34
2018-04-01T13:37:58.851Z,71.40
2018-04-01T13:40:26.620Z,66.16
2018-04-01T13:42:55.294Z,60.58
2018-04-01T13:45:23.124Z,53.58
2018-04-01T13:47:50.889Z,51.70
2018-04-01T13:50:18.683Z,49.54
2018-04-01T13:52:46.523Z,45.89
2018-04-01T13:55:14.381Z,45.13
2018-04-01T13:57:42.151Z,45.58
2018-04-01T14:00:09.956Z,45.00
2018-04-01T14:02:37.733Z,40.88
2018-04-01T14:05:05.645Z,42.10
2018-04-01T14:07:33.405Z,42.77
2018-04-01T14:10:01.276Z,47.89
2018-04-01T14:12:29.043Z,46.63
2018-04-01T14:14:56.890Z,51.12
2018-04-01T14:17:24.663Z,52.47
2018-04-01T14:19:52.535Z,53.44
2018-04-01T14:22:20.307Z,56.46
2018-04-01T14:24:48.164Z,55.91
2018-04-01T14:27:15.954Z,56.17
2018-04-01T14:29:43.756Z,62.27
2018-04-01T14:32:11.581Z,69.15
2018-04-01T14:34:39.428Z,70.79
2018-04-01T14:37:07.280Z,73.69
2018-04-01T14:39:35.111Z,71.07
2018-04-01T14:42:02.907Z,73.19
2018-04-01T14:44:30.747Z,72.61
2018-04-01T14:46:58.540Z,72.97
2018-04-01T14:49:26.303Z,73.06
2018-04-01T14:51:54.103Z,71.76
2018-04-01T14:54:21.893Z,71.20
2018-04-01T14:56:49.650Z,70.84
2018-04-01T14:59:17.453Z,70.58
2018-04-01T15:01:45.247Z,69.97
2018-04-01T15:04:13.119Z,68.25
2018-04-01T15:06:40.886Z,68.25
2018-04-01T15:09:08.679Z,65.47
2018-04-01T15:11:36.510Z,63.03
2018-04-01T15:14:04.307Z,62.29
2018-04-01T15:16:32.081Z,61.63
2018-04-01T15:18:59.892Z,58.59
2018-04-01T15:21:28.635Z,53.49
2018-04-01T15:23:56.547Z,46.36
2018-04-01T15:26:24.407Z,42.51
2018-04-01T15:28:52.205Z,44.93
2018-04-01T15:31:20.010Z,45.69
2018-04-01T15:33:47.843Z,53.53
2018-04-01T15:36:15.602Z,57.27
2018-04-01T15:38:43.434Z,57.40
2018-04-01T15:41:11.244Z,57.94
2018-04-01T15:43:39.057Z,58.60
2018-04-01T15:46:06.862Z,59.17
2018-04-01T15:48:34.696Z,58.95
2018-04-01T15:51:02.560Z,59.19
2018-04-01T15:53:30.343Z,58.63
2018-04-01T15:55:58.123Z,60.01
2018-04-01T15:58:25.975Z,58.21
2018-04-01T16:00:53.756Z,54.19
2018-04-01T16:03:21.523Z,53.82
2018-04-01T16:05:49.350Z,54.48
2018-04-01T16:08:17.160Z,54.32
2018-04-01T16:10:44.948Z,55.50
2018-04-01T16:13:12.712Z,55.13
2018-04-01T16:15:40.515Z,55.38
2018-04-01T16:18:08.378Z,56.02
2018-04-01T16:20:36.347Z,55.61
2018-04-01T16:23:04.110Z,53.13
2018-04-01T16:25:31.890Z,55.07
2018-04-01T16:27:59.743Z,57.55
2018-04-01T16:30:27.493Z,57.94
2018-04-01T16:32:55.298Z,58.28
2018-04-01T16:35:23.066Z,58.76
2018-04-01T16:37:50.898Z,59.14
2018-04-01T16:40:18.659Z,58.47
2018-04-01T16:42:46.514Z,57.96
2018-04-01T16:45:14.300Z,58.79
2018-04-01T16:47:42.159Z,59.37
2018-04-01T16:50:10.015Z,59.84
2018-04-01T16:52:37.824Z,60.02
2018-04-01T16:55:05.654Z,60.65
2018-04-01T16:57:33.454Z,61.84
2018-04-01T17:00:01.295Z,62.65
2018-04-01T17:02:29.146Z,62.52
2018-04-01T17:04:56.920Z,62.35
2018-04-01T17:07:24.702Z,63.38
2018-04-01T17:09:52.551Z,63.35
2018-04-01T17:12:20.360Z,63.29
2018-04-01T17:14:48.184Z,64.33
2018-04-01T17:17:16.048Z,63.16
2018-04-01T17:19:43.812Z,63.92
2018-04-01T17:22:11.679Z,63.79
2018-04-01T17:24:39.547Z,63.77
2018-04-01T17:27:07.502Z,63.71
2018-04-01T17:29:35.294Z,64.13
2018-04-01T17:32:03.136Z,64.53
2018-04-01T17:34:31.010Z,64.79
2018-04-01T17:36:58.783Z,65.28
2018-04-01T17:39:26.589Z,65.40
2018-04-01T17:41:54.446Z,65.42
2018-04-01T17:44:22.247Z,66.15
2018-04-01T17:46:50.136Z,66.47
2018-04-01T17:49:17.927Z,66.43
2018-04-01T17:51:45.690Z,66.84
2018-04-01T17:54:13.486Z,66.82
2018-04-01T17:56:41.266Z,67.07
2018-04-01T17:59:09.146Z,67.65
2018-04-01T18:01:36.914Z,67.45
2018-04-01T18:04:04.783Z,67.45
2018-04-01T18:06:32.564Z,67.50
2018-04-01T18:09:00.429Z,67.79
2018-04-01T18:11:28.273Z,68.33
2018-04-01T18:13:56.450Z,68.17
2018-04-01T18:16:24.215Z,67.99
2018-04-01T18:18:51.983Z,67.88
2018-04-01T18:21:19.784Z,68.40
2018-04-01T18:23:47.709Z,67.34
2018-04-01T18:26:15.511Z,67.84
2018-04-01T18:28:43.276Z,68.14
2018-04-01T18:31:11.126Z,67.86
2018-04-01T18:33:38.895Z,67.94
2018-04-01T18:36:06.689Z,67.67
2018-04-01T18:38:34.495Z,67.72
2018-04-01T18:41:02.291Z,67.40
2018-04-01T18:43:30.128Z,67.55
2018-04-01T18:45:57.921Z,67.12
2018-04-01T18:48:25.694Z,66.81
2018-04-01T18:50:53.481Z,66.96
2018-04-01T18:53:21.327Z,66.96
2018-04-01T18:55:49.167Z,66.88
2018-04-01T18:58:16.922Z,66.85
2018-04-01T19:00:44.687Z,67.01
2018-04-01T19:03:12.474Z,67.55
2018-04-01T19:05:40.241Z,68.00
2018-04-01T19:08:08.066Z,67.84
2018-04-01T19:10:35.838Z,67.94
2018-04-01T19:13:03.626Z,68.36
2018-04-01T19:15:31.466Z,68.31
2018-04-01T19:17:59.800Z,69.00
2018-04-01T19:20:28.137Z,68.99
2018-04-01T19:22:56.513Z,69.01
2018-04-01T19:25:24.819Z,68.93
2018-04-01T19:27:53.154Z,69.17
2018-04-01T19:30:21.567Z,69.19
2018-04-01T19:32:49.899Z,69.06
2018-04-01T19:35:18.299Z,69.69
2018-04-01T19:37:46.682Z,69.89
2018-04-01T19:40:15.092Z,70.21
2018-04-01T19:42:43.434Z,70.14
2018-04-01T19:45:11.812Z,70.37
2018-04-01T19:47:40.124Z,69.98
2018-04-01T19:50:08.482Z,70.00
2018-04-01T19:52:36.826Z,69.90
2018-04-01T19:55:05.219Z,69.54
2018-04-01T19:57:33.517Z,69.05
2018-04-01T20:00:01.880Z,68.81
2018-04-01T20:02:30.277Z,69.11
2018-04-01T20:04:58.614Z,68.12
2018-04-01T20:07:26.917Z,68.55
2018-04-01T20:09:55.244Z,67.71
2018-04-01T20:12:23.559Z,67.64
2018-04-01T20:14:51.887Z,68.03
2018-04-01T20:17:20.219Z,68.00
2018-04-01T20:19:48.557Z,67.61
2018-04-01T20:22:16.879Z,68.03
2018-04-01T20:24:45.353Z,68.25
2018-04-01T20:27:13.666Z,69.02
2018-04-01T20:29:42.002Z,68.80
2018-04-01T20:32:10.385Z,69.14
2018-04-01T20:34:38.758Z,68.85
2018-04-01T20:37:07.127Z,68.82
2018-04-01T20:39:35.439Z,68.68
2018-04-01T20:42:03.763Z,68.36
2018-04-01T20:44:32.161Z,68.24
2018-04-01T20:47:00.504Z,67.76
2018-04-01T20:49:28.846Z,67.66
2018-04-01T20:51:57.307Z,68.03
2018-04-01T20:54:25.679Z,67.37
2018-04-01T20:56:54.008Z,66.98
2018-04-01T20:59:22.328Z,66.99
2018-04-01T21:01:51.657Z,66.69
2018-04-01T21:04:20.019Z,66.52
2018-04-01T21:06:48.448Z,66.53
2018-04-01T21:09:16.756Z,66.65
2018-04-01T21:11:45.102Z,66.86
2018-04-01T21:14:13.435Z,66.70
2018-04-01T21:16:41.805Z,66.43
2018-04-01T21:19:10.136Z,66.52
2018-04-01T21:21:38.449Z,66.75
2018-04-01T21:24:06.786Z,66.78
2018-04-01T21:26:35.091Z,67.02
2018-04-01T21:29:03.435Z,67.00
2018-04-01T21:31:31.743Z,66.89
2018-04-01T21:34:00.103Z,67.27
2018-04-01T21:36:28.410Z,67.36
2018-04-01T21:38:56.776Z,67.75
2018-04-01T21:41:25.043Z,68.05
2018-04-01T21:43:53.378Z,68.58
2018-04-01T21:46:21.703Z,68.85
2018-04-01T21:48:50.042Z,68.71
2018-04-01T21:51:18.361Z,68.70
2018-04-01T21:53:46.769Z,68.98
2018-04-01T21:56:15.152Z,68.58
2018-04-01T21:58:43.516Z,68.62
2018-04-01T22:01:11.835Z,68.79
2018-04-01T22:03:40.178Z,69.05
2018-04-01T22:06:08.463Z,68.84
2018-04-01T22:08:36.799Z,69.05
2018-04-01T22:11:05.111Z,68.95
2018-04-01T22:13:33.489Z,68.87
2018-04-01T22:16:01.820Z,69.11
2018-04-01T22:18:30.138Z,69.04
2018-04-01T22:20:58.518Z,68.92
2018-04-01T22:23:26.827Z,69.21
2018-04-01T22:25:55.154Z,68.74
2018-04-01T22:28:23.580Z,68.64
2018-04-01T22:30:51.919Z,68.46
2018-04-01T22:33:20.231Z,68.69
2018-04-01T22:35:48.591Z,68.71
2018-04-01T22:38:16.895Z,68.88
2018-04-01T22:40:45.250Z,69.66
2018-04-01T22:43:13.551Z,68.82
2018-04-01T22:45:41.879Z,68.99
2018-04-01T22:48:10.189Z,68.93
2018-04-01T22:50:38.931Z,69.07
2018-04-01T22:53:07.222Z,68.86
2018-04-01T22:55:35.554Z,68.75
2018-04-01T22:58:03.864Z,69.27
2018-04-01T23:00:32.268Z,69.23
2018-04-01T23:03:00.572Z,69.05
2018-04-01T23:05:28.908Z,69.00
2018-04-01T23:07:57.311Z,68.82
2018-04-01T23:10:25.704Z,68.58
2018-04-01T23:12:54.010Z,68.70
2018-04-01T23:15:22.362Z,68.96
2018-04-01T23:17:50.696Z,68.77
2018-04-01T23:20:19.003Z,68.55
2018-04-01T23:22:47.335Z,68.70
2018-04-01T23:25:15.648Z,68.56
2018-04-01T23:27:44.034Z,68.48
2018-04-01T23:30:12.334Z,68.62
2018-04-01T23:32:40.731Z,68.55
2018-04-01T23:35:09.034Z,68.60
2018-04-01T23:37:37.436Z,68.53
2018-04-01T23:40:05.735Z,68.77
2018-04-01T23:42:34.080Z,68.53
2018-04-01T23:45:02.468Z,69.20
2018-04-01T23:47:30.819Z,68.84
2018-04-01T23:49:59.109Z,69.15
2018-04-01T23:52:27.496Z,69.42
2018-04-01T23:54:55.884Z,69.50
2018-04-01T23:57:24.213Z,70.03
2018-04-01T23:59:52.517Z,70.38
